Aviation Digital Data Service (ADDS)

Output produced by METARs form (1844 UTC 18 June 2019)
found at http://www.aviationweather.gov/metar/data/
 
EBBE 181825Z AUTO 08003KT 9999 BKN170/// 24/15 Q1011 BLU
TAF EBBE 181541Z 1819/1907 07005KT 9999 SCT100 BKN130 
     BECMG 1822/1900 12007KT 
     BECMG 1903/1905 20012KT BKN080
       
EBBR 181820Z VRB02KT CAVOK 24/18 Q1011 NOSIG
TAF COR EBBR 181710Z 1818/1924 14005KT CAVOK 
     BECMG 1907/1909 20012KT 
     PROB30 
     TEMPO 1905/1909 20020G30KT 3500 SHRA TSRA 
     PROB40 
     TEMPO 1912/1921 20025G35KT 3500 SHRA TSRAGR
       
EBCI 181820Z 10004KT CAVOK 24/16 Q1012 NOSIG
TAF COR EBCI 181710Z 1818/1924 14005KT CAVOK 
     BECMG 1907/1909 20012KT 
     PROB30 
     TEMPO 1905/1909 20020G30KT 3500 SHRA TSRA 
     PROB40 
     TEMPO 1912/1921 20025G35KT 3500 SHRA TSRAGR
       
EBCV 181825Z AUTO 10003KT //// BKN110/// ///// Q1011 BLU
TAF EBCV 181541Z 1819/1907 VRB03KT 9999 SCT110 BKN200 
     PROB30 
     TEMPO 1819/1822 VRB14G28KT 3000 -TSRA SCT030CB BKN100 
     BECMG 1822/1824 14005KT 
     PROB40 
     TEMPO 1903/1907 VRB15G30KT 3000 -TSRA SCT030CB BKN090 BY EBWM
       
EBAW 181820Z 10003KT CAVOK 25/16 Q1011 NOSIG
TAF EBAW 181710Z 1818/1903 14005KT CAVOK
       
EBFS 181825Z AUTO 13003KT 9999 SCT170/// 24/12 Q1012 BLU
TAF EBFS 181541Z 1819/1907 VRB02KT 9999 FEW040 BKN180 
     PROB30 
     TEMPO 1819/1900 8000 -SHRA SCT030 SCT100 BKN180 
     PROB30 
     TEMPO 1902/1904 4000 TSRA SCT012CB BKN030
       
EBBL 181825Z AUTO VRB01KT 9999 NCD 25/15 Q1011 BLU
TAF EBBL 181541Z 1819/1907 VRB03KT 9999 BKN130
       
EBFN 181825Z AUTO 04011KT 9999 -RA FEW043/// BKN099/// 18/15 Q1011 BLU
TAF EBFN 181541Z 1819/1907 04010KT 9999 FEW040 BKN200 
     PROB40 
     TEMPO 1819/1907 14015G25KT 4000 SHRA SCT040TCU 
     PROB30 
     TEMPO 1819/1907 14020G35KT 2000 TSRAGR SCT030CB 
     BECMG 1902/1904 14008KT
       
EBLG 181820Z 07005KT 020V110 CAVOK 25/14 Q1012 NOSIG
TAF COR EBLG 181710Z 1818/1924 14005KT CAVOK 
     BECMG 1907/1909 20012KT 
     PROB30 
     TEMPO 1906/1910 20020G30KT 3500 SHRA TSRA 
     PROB40 
     TEMPO 1912/1921 20025G35KT 3500 SHRA TSRAGR
       
EBOS 181820Z 05010KT 9999 FEW050TCU 19/M06 Q1012 TEMPO 4000 TSRA
TAF COR EBOS 181710Z 1818/1924 07010KT CAVOK 
     TEMPO 1818/1820 4000 SHRA 
     PROB30 
     TEMPO 1900/1909 20020G30KT 3500 SHRA TSRA 
     PROB40 
     TEMPO 1912/1921 20025G35KT 3500 SHRA TSRAGR